Time;durP1;ratioP1;P1;durP2;ratioP2;P2;SDS_P1;SDS_P2;PMS_P1;PMS_P2;Temp;Humidity;BMP_temperature;BMP_pressure;BME280_temperature;BME280_humidity;BME280_pressure;Samples;Min_cycle;Max_cycle;Signal;HPM_P1;HPM_P2
2023/10/04 00:00:15;;;;;;;13.38;3.35;;;;;;;12.69;100.00;102321.72;5094113;28;20436;-70
2023/10/04 00:02:50;;;;;;;9.18;1.63;;;;;;;12.79;100.00;102307.72;5092425;28;20115;-72
2023/10/04 00:05:17;;;;;;;11.73;3.58;;;;;;;12.68;100.00;102310.03;5094149;28;20024;-70
2023/10/04 00:07:44;;;;;;;12.07;3.22;;;;;;;12.64;100.00;102313.34;5094993;28;20032;-71
2023/10/04 00:10:11;;;;;;;8.68;2.85;;;;;;;12.65;100.00;102310.44;5095177;28;20035;-73
2023/10/04 00:12:36;;;;;;;11.93;3.42;;;;;;;12.64;100.00;102314.19;5094469;28;20041;-73
2023/10/04 00:15:04;;;;;;;10.32;3.42;;;;;;;12.64;100.00;102319.59;5095088;28;20024;-72
2023/10/04 00:17:29;;;;;;;11.52;3.05;;;;;;;12.67;100.00;102319.19;5095051;28;20032;-70
2023/10/04 00:19:55;;;;;;;14.60;3.70;;;;;;;12.66;100.00;102327.56;5094672;28;20035;-73
2023/10/04 00:22:22;;;;;;;10.93;3.30;;;;;;;12.66;100.00;102330.28;5093666;28;20040;-72
2023/10/04 00:24:50;;;;;;;13.77;3.40;;;;;;;12.68;100.00;102325.47;5093085;28;20024;-73
2023/10/04 00:27:15;;;;;;;5.78;1.50;;;;;;;12.79;100.00;102332.19;5093864;28;20486;-72
2023/10/04 00:29:41;;;;;;;13.45;3.17;;;;;;;12.71;100.00;102322.34;5094576;28;20028;-74
2023/10/04 00:32:06;;;;;;;12.38;3.58;;;;;;;12.74;100.00;102314.63;5094804;28;20031;-71
2023/10/04 00:34:31;;;;;;;10.90;3.00;;;;;;;12.77;100.00;102310.66;5094738;28;20451;-72
2023/10/04 00:36:56;;;;;;;11.80;3.13;;;;;;;12.83;100.00;102318.00;5094446;28;20028;-74
2023/10/04 00:39:22;;;;;;;9.65;3.08;;;;;;;12.79;100.00;102310.44;5085899;28;20028;-70
2023/10/04 00:41:50;;;;;;;8.60;2.63;;;;;;;12.80;100.00;102312.97;5073893;28;20039;-69
2023/10/04 00:44:16;;;;;;;6.57;1.73;;;;;;;12.88;100.00;102320.94;5074184;28;20067;-70
2023/10/04 00:46:45;;;;;;;11.27;3.30;;;;;;;12.81;100.00;102325.50;5073952;28;20056;-73
2023/10/04 00:49:11;;;;;;;11.02;3.40;;;;;;;12.78;100.00;102325.91;5075964;28;20032;-70
2023/10/04 00:51:38;;;;;;;10.98;2.90;;;;;;;12.73;100.00;102331.97;5072837;28;20033;-70
2023/10/04 00:54:08;;;;;;;10.35;3.15;;;;;;;12.66;100.00;102332.97;5080039;28;20042;-68
2023/10/04 00:56:36;;;;;;;9.88;3.00;;;;;;;12.69;100.00;102338.00;5094011;28;20111;-73
2023/10/04 00:59:04;;;;;;;10.30;3.10;;;;;;;12.68;100.00;102345.31;5093940;28;20455;-71
2023/10/04 01:01:31;;;;;;;13.15;3.53;;;;;;;12.65;100.00;102353.03;5090491;28;20028;-70
2023/10/04 01:03:58;;;;;;;10.82;3.80;;;;;;;12.64;100.00;102351.38;5092687;28;20110;-72
2023/10/04 01:06:24;;;;;;;9.07;3.25;;;;;;;12.64;100.00;102345.94;5094219;28;20031;-70
2023/10/04 01:08:50;;;;;;;5.07;1.40;;;;;;;12.73;100.00;102350.16;5093823;28;20024;-71
2023/10/04 01:11:15;;;;;;;10.20;3.35;;;;;;;12.58;100.00;102342.97;5093847;28;20029;-71
2023/10/04 01:13:41;;;;;;;11.07;3.75;;;;;;;12.56;100.00;102338.78;5092771;28;20035;-72
2023/10/04 01:16:09;;;;;;;4.50;1.50;;;;;;;12.64;100.00;102345.94;5092289;28;20024;-70
2023/10/04 01:18:35;;;;;;;10.55;2.92;;;;;;;12.54;100.00;102354.44;5093756;28;20028;-71
2023/10/04 01:21:01;;;;;;;12.10;3.42;;;;;;;12.53;100.00;102355.47;5093614;28;20361;-73
2023/10/04 01:23:28;;;;;;;11.32;3.67;;;;;;;12.48;100.00;102353.34;5091358;28;20150;-72
2023/10/04 01:25:53;;;;;;;11.77;3.35;;;;;;;12.46;100.00;102360.88;5093216;28;20589;-70
2023/10/04 01:28:27;;;;;;;11.43;3.50;;;;;;;12.47;100.00;102357.13;5093731;28;20032;-72
2023/10/04 01:30:54;;;;;;;7.68;1.75;;;;;;;12.56;100.00;102361.34;5092173;28;20032;-70
2023/10/04 01:33:19;;;;;;;9.45;3.35;;;;;;;12.50;100.00;102358.59;5092214;28;20360;-72
2023/10/04 01:35:48;;;;;;;12.43;3.28;;;;;;;12.43;100.00;102361.28;5091026;28;20085;-71
2023/10/04 01:38:14;;;;;;;12.25;3.58;;;;;;;12.43;100.00;102361.28;5093446;28;20031;-71
2023/10/04 01:40:42;;;;;;;5.38;1.60;;;;;;;12.55;100.00;102356.13;5092113;28;20471;-72
2023/10/04 01:43:15;;;;;;;9.90;2.15;;;;;;;12.53;100.00;102356.31;5093848;28;20422;-72
2023/10/04 01:45:43;;;;;;;11.23;3.30;;;;;;;12.43;100.00;102364.00;5092151;28;20085;-71
2023/10/04 01:48:09;;;;;;;13.38;3.65;;;;;;;12.43;100.00;102361.28;5099385;28;20028;-66
2023/10/04 01:50:34;;;;;;;8.65;3.22;;;;;;;12.41;100.00;102352.50;5101701;28;20071;-69
2023/10/04 01:53:01;;;;;;;13.75;3.70;;;;;;;12.43;100.00;102355.03;5100597;28;20024;-69
2023/10/04 01:55:26;;;;;;;11.85;3.22;;;;;;;12.43;100.00;102361.28;5091998;28;20028;-71
2023/10/04 01:57:52;;;;;;;7.82;3.08;;;;;;;12.42;100.00;102365.03;5091824;28;20035;-70
2023/10/04 02:00:18;;;;;;;6.25;1.30;;;;;;;12.50;100.00;102354.00;5092666;28;20034;-71
2023/10/04 02:02:44;;;;;;;11.18;3.38;;;;;;;12.44;100.00;102357.53;5091275;28;20487;-69
2023/10/04 02:05:10;;;;;;;11.25;3.22;;;;;;;12.44;100.00;102352.09;5092990;28;20085;-70
2023/10/04 02:07:40;;;;;;;11.32;3.50;;;;;;;12.44;100.00;102354.81;5092373;28;20031;-72
2023/10/04 02:10:09;;;;;;;11.20;3.38;;;;;;;12.44;100.00;102352.09;5091022;28;20024;-69
2023/10/04 02:12:34;;;;;;;11.73;3.40;;;;;;;12.45;100.00;102353.75;5092955;28;20103;-70
2023/10/04 02:14:59;;;;;;;12.85;3.38;;;;;;;12.43;100.00;102350.41;5091335;28;20119;-70
2023/10/04 02:17:25;;;;;;;13.65;3.60;;;;;;;12.44;100.00;102352.09;5092865;28;20047;-70
2023/10/04 02:19:53;;;;;;;8.52;2.88;;;;;;;12.47;100.00;102357.13;5092626;28;20032;-72
2023/10/04 02:22:19;;;;;;;9.82;3.30;;;;;;;12.45;100.00;102353.75;5088054;28;20036;-73
2023/10/04 02:24:45;;;;;;;2.90;1.20;;;;;;;12.54;100.00;102357.97;5072113;28;20051;-72
2023/10/04 02:27:11;;;;;;;13.23;3.60;;;;;;;12.44;100.00;102349.41;5072896;28;20040;-70
2023/10/04 02:29:38;;;;;;;12.45;4.15;;;;;;;12.43;100.00;102350.41;5072553;28;20032;-70
2023/10/04 02:32:10;;;;;;;13.13;3.38;;;;;;;12.42;100.00;102348.72;5072618;28;20886;-70
2023/10/04 02:34:38;;;;;;;16.52;3.40;;;;;;;12.42;100.00;102348.72;5072479;28;20090;-69
2023/10/04 02:37:06;;;;;;;13.35;3.42;;;;;;;12.39;100.00;102341.84;5072244;28;20037;-70
2023/10/04 02:39:38;;;;;;;5.40;1.80;;;;;;;12.51;100.00;102352.13;5072312;28;20025;-69
2023/10/04 02:42:09;;;;;;;9.15;3.42;;;;;;;12.41;100.00;102350.63;5070564;28;20025;-71
2023/10/04 02:44:38;;;;;;;6.70;1.63;;;;;;;12.53;100.00;102363.63;5075696;28;20064;-74
2023/10/04 02:47:07;;;;;;;9.38;3.55;;;;;;;12.40;100.00;102364.41;5072244;28;20028;-72
2023/10/04 02:49:34;;;;;;;12.93;3.72;;;;;;;12.37;100.00;102360.19;5072053;28;20111;-69
2023/10/04 02:52:00;;;;;;;13.05;3.45;;;;;;;12.36;100.00;102363.13;5070815;28;20028;-72
2023/10/04 02:54:27;;;;;;;10.82;3.30;;;;;;;12.34;100.00;102362.47;5072040;28;20037;-71
2023/10/04 02:56:53;;;;;;;13.63;3.60;;;;;;;12.31;100.00;102358.28;5072078;28;20066;-71
2023/10/04 02:59:18;;;;;;;17.55;2.35;;;;;;;12.39;100.00;102362.72;5072180;28;20056;-71
2023/10/04 03:01:43;;;;;;;11.25;3.40;;;;;;;12.31;100.00;102369.13;5069544;28;20024;-74
2023/10/04 03:04:09;;;;;;;12.75;3.63;;;;;;;12.29;100.00;102373.94;5071948;28;20020;-72
2023/10/04 03:06:35;;;;;;;9.00;3.28;;;;;;;12.30;100.00;102366.63;5089614;28;20077;-72
2023/10/04 03:09:00;;;;;;;14.25;3.30;;;;;;;12.30;100.00;102363.91;5078498;28;20035;-73
2023/10/04 03:11:27;;;;;;;10.98;3.72;;;;;;;12.27;100.00;102361.59;5071785;28;20499;-73
2023/10/04 03:13:52;;;;;;;10.82;3.80;;;;;;;12.28;100.00;102369.53;5072014;28;20028;-69
2023/10/04 03:16:20;;;;;;;11.50;1.77;;;;;;;12.35;100.00;102384.00;5072187;28;20036;-71
2023/10/04 03:18:46;;;;;;;16.45;3.97;;;;;;;12.27;100.00;102388.75;5074015;28;20060;-71
2023/10/04 03:21:16;;;;;;;8.90;2.03;;;;;;;12.35;100.00;102392.16;5075703;28;20059;-72
2023/10/04 03:23:42;;;;;;;12.45;3.58;;;;;;;12.22;100.00;102390.16;5074358;28;20032;-71
2023/10/04 03:26:12;;;;;;;15.20;3.90;;;;;;;12.18;100.00;102390.75;5075575;28;20036;-70
2023/10/04 03:28:37;;;;;;;6.00;1.63;;;;;;;12.28;100.00;102385.00;5076956;28;20033;-71
2023/10/04 03:31:10;;;;;;;12.60;3.83;;;;;;;12.12;100.00;102389.66;5089888;28;20104;-71
2023/10/04 03:33:36;;;;;;;11.75;3.50;;;;;;;12.11;100.00;102384.44;5092520;28;20085;-72
2023/10/04 03:36:05;;;;;;;17.85;3.67;;;;;;;12.09;100.00;102383.81;5095937;28;20028;-69
2023/10/04 03:38:34;;;;;;;12.48;3.70;;;;;;;12.07;100.00;102392.16;5095781;28;20027;-71
2023/10/04 03:41:04;;;;;;;4.63;1.25;;;;;;;12.13;100.00;102385.94;5093649;28;20040;-75
2023/10/04 03:43:30;;;;;;;2.45;1.17;;;;;;;12.13;100.00;102383.22;5074968;28;20036;-70
2023/10/04 03:45:56;;;;;;;5.95;2.00;;;;;;;12.12;100.00;102386.94;5093107;28;20044;-71
2023/10/04 03:48:23;;;;;;;12.65;4.03;;;;;;;11.94;100.00;102386.63;5095331;28;20028;-74
2023/10/04 03:50:50;;;;;;;11.75;3.42;;;;;;;11.94;100.00;102384.75;5081855;28;20036;-71
2023/10/04 03:53:16;;;;;;;11.65;2.08;;;;;;;12.05;100.00;102386.09;5075506;28;20036;-68
2023/10/04 03:55:43;;;;;;;7.50;1.88;;;;;;;12.04;100.00;102384.41;5092395;28;20425;-70
2023/10/04 03:58:10;;;;;;;13.90;3.97;;;;;;;11.88;100.00;102370.06;5093579;28;20123;-70
2023/10/04 04:00:36;;;;;;;12.32;3.63;;;;;;;11.90;100.00;102367.16;5083219;28;20060;-74
2023/10/04 04:03:03;;;;;;;13.13;3.45;;;;;;;11.82;100.00;102360.00;5074922;28;20063;-72
2023/10/04 04:05:30;;;;;;;12.00;3.70;;;;;;;11.80;100.00;102362.06;5075056;28;20036;-69
2023/10/04 04:07:56;;;;;;;4.18;1.90;;;;;;;11.89;100.00;102368.19;5074701;28;20024;-72
2023/10/04 04:10:22;;;;;;;12.27;2.05;;;;;;;11.90;100.00;102369.88;5084364;28;20026;-70
2023/10/04 04:12:47;;;;;;;10.43;2.30;;;;;;;11.86;100.00;102374.84;5085721;28;20082;-72
2023/10/04 04:15:23;;;;;;;13.70;4.25;;;;;;;11.72;100.00;102364.09;5094883;28;20541;-73
2023/10/04 04:17:50;;;;;;;13.13;4.03;;;;;;;11.70;100.00;102369.72;5093656;28;20487;-70
2023/10/04 04:20:18;;;;;;;12.02;3.92;;;;;;;11.70;100.00;102361.59;5094850;28;20024;-71
2023/10/04 04:22:53;;;;;;;13.20;4.05;;;;;;;11.66;100.00;102365.72;5094738;28;20564;-74
2023/10/04 04:25:26;;;;;;;6.13;2.03;;;;;;;11.79;100.00;102359.53;5094979;28;20035;-72
2023/10/04 04:27:52;;;;;;;11.82;3.78;;;;;;;11.62;100.00;102353.56;5093148;28;20471;-69
2023/10/04 04:30:20;;;;;;;16.30;2.65;;;;;;;11.76;100.00;102354.50;5093982;28;20047;-74
2023/10/04 04:32:52;;;;;;;10.88;3.88;;;;;;;11.63;100.00;102349.81;5094775;28;20028;-73
2023/10/04 04:35:34;;;;;;;;;;;;;;;11.78;100.00;102356.00;5094167;28;20031;-68
2023/10/04 04:38:31;;;;;;;14.57;4.28;;;;;;;11.63;100.00;102358.78;5094586;28;19908;-69
2023/10/04 04:40:56;;;;;;;7.53;1.95;;;;;;;11.71;100.00;102363.22;5094211;28;20073;-70
2023/10/04 04:45:52;;;;;;;15.10;4.15;;;;;;;11.58;100.00;102368.53;5094503;28;20032;-69
2023/10/04 04:48:23;;;;;;;9.25;3.42;;;;;;;11.55;100.00;102347.25;5094213;28;20031;-72
2023/10/04 04:50:54;;;;;;;6.82;2.53;;;;;;;11.67;100.00;102354.66;5094529;28;20020;-71
2023/10/04 04:53:22;;;;;;;18.38;4.30;;;;;;;11.51;100.00;102355.75;5094414;28;20084;-71
2023/10/04 04:55:48;;;;;;;11.70;3.85;;;;;;;11.54;100.00;102359.97;5093036;28;20020;-70
2023/10/04 04:58:14;;;;;;;13.52;4.25;;;;;;;11.50;100.00;102362.25;5092979;28;20047;-72
2023/10/04 05:00:43;;;;;;;13.90;3.72;;;;;;;11.44;100.00;102352.13;5092227;28;20020;-69
2023/10/04 05:03:09;;;;;;;11.50;2.22;;;;;;;11.60;100.00;102361.91;5096932;28;20024;-67
2023/10/04 05:05:34;;;;;;;24.33;5.13;;;;;;;11.44;100.00;102356.72;5106833;28;20024;-68
2023/10/04 05:08:00;;;;;;;11.55;4.15;;;;;;;11.42;100.00;102365.06;5102402;28;20056;-70
2023/10/04 05:10:29;;;;;;;13.90;4.18;;;;;;;11.43;100.00;102376.72;5093640;28;20050;-69
2023/10/04 05:12:55;;;;;;;11.90;2.20;;;;;;;11.55;100.00;102387.91;5093837;28;20360;-72
2023/10/04 05:15:42;;;;;;;12.02;2.80;;;;;;;11.59;100.00;102397.34;5093927;28;20024;-71
2023/10/04 05:18:10;;;;;;;13.25;3.95;;;;;;;11.42;100.00;102397.59;5093185;28;20032;-72
2023/10/04 05:20:36;;;;;;;10.55;3.60;;;;;;;11.38;100.00;102411.72;5092662;28;20036;-70
2023/10/04 05:23:03;;;;;;;4.03;1.90;;;;;;;11.49;100.00;102403.91;5093575;28;20379;-72
2023/10/04 05:25:28;;;;;;;11.35;3.65;;;;;;;11.33;100.00;102404.16;5093809;28;20471;-70
2023/10/04 05:28:03;;;;;;;12.57;4.22;;;;;;;11.33;100.00;102420.44;5093820;28;20063;-68
2023/10/04 05:30:29;;;;;;;15.80;4.20;;;;;;;11.27;100.00;102413.91;5093722;28;20032;-70
2023/10/04 05:32:55;;;;;;;12.32;3.00;;;;;;;11.39;100.00;102403.41;5093662;28;20036;-69
2023/10/04 05:35:21;;;;;;;13.73;4.20;;;;;;;11.28;100.00;102406.63;5093335;28;20039;-72
2023/10/04 05:37:46;;;;;;;13.20;4.10;;;;;;;11.20;100.00;102410.25;5093854;28;20376;-71
2023/10/04 05:40:16;;;;;;;11.10;4.03;;;;;;;11.23;100.00;102409.91;5093197;28;20028;-72
2023/10/04 05:42:45;;;;;;;11.35;2.38;;;;;;;11.36;100.00;102414.63;5091475;28;20506;-69
2023/10/04 05:45:14;;;;;;;8.52;2.45;;;;;;;11.35;100.00;102413.78;5093157;28;20623;-69
2023/10/04 05:47:40;;;;;;;14.82;4.22;;;;;;;11.20;100.00;102414.84;5093370;28;20387;-71
2023/10/04 05:50:07;;;;;;;9.60;2.50;;;;;;;11.32;100.00;102419.59;5093056;28;20035;-71
2023/10/04 05:52:32;;;;;;;16.50;4.20;;;;;;;11.13;100.00;102415.63;5092956;28;20039;-71
2023/10/04 05:54:59;;;;;;;12.20;2.28;;;;;;;11.28;100.00;102433.72;5092939;28;20027;-71
2023/10/04 05:57:24;;;;;;;5.97;2.17;;;;;;;11.28;100.00;102433.72;5091854;28;20024;-71
2023/10/04 05:59:50;;;;;;;8.00;2.60;;;;;;;11.29;100.00;102428.13;5093052;28;20039;-70
2023/10/04 06:02:15;;;;;;;10.95;3.78;;;;;;;11.15;100.00;102424.38;5089602;28;20467;-70
2023/10/04 06:04:42;;;;;;;16.65;4.55;;;;;;;11.12;100.00;102432.06;5093145;28;20032;-69
2023/10/04 06:07:08;;;;;;;8.98;2.30;;;;;;;11.27;100.00;102437.44;5093113;28;20431;-71
2023/10/04 06:09:33;;;;;;;15.43;4.10;;;;;;;11.17;100.00;102438.59;5092982;28;20070;-71
2023/10/04 06:12:01;;;;;;;13.02;2.17;;;;;;;11.29;100.00;102440.81;5092612;28;20040;-70
2023/10/04 06:14:26;;;;;;;14.32;4.57;;;;;;;11.14;100.00;102435.41;5092981;28;20459;-70
2023/10/04 06:16:52;;;;;;;12.73;4.22;;;;;;;11.11;100.00;102447.50;5092928;28;20024;-71
2023/10/04 06:19:19;;;;;;;15.23;4.70;;;;;;;11.09;100.00;102446.81;5091321;28;20024;-69
2023/10/04 06:21:49;;;;;;;9.18;2.33;;;;;;;11.21;100.00;102444.47;5092587;28;20356;-71
2023/10/04 06:24:15;;;;;;;18.80;4.63;;;;;;;11.13;100.00;102453.53;5091378;28;20463;-72
2023/10/04 06:26:41;;;;;;;7.72;2.25;;;;;;;11.28;100.00;102449.97;5092774;28;20165;-69
2023/10/04 06:29:07;;;;;;;15.52;4.57;;;;;;;11.16;100.00;102449.63;5092487;28;20027;-67
2023/10/04 06:31:32;;;;;;;11.27;3.90;;;;;;;11.17;100.00;102462.97;5092737;28;20029;-69
2023/10/04 06:33:59;;;;;;;14.07;4.35;;;;;;;11.19;100.00;102457.38;5092664;28;20020;-71
2023/10/04 06:36:25;;;;;;;10.00;2.20;;;;;;;11.30;100.00;102462.28;5092711;28;20055;-70
2023/10/04 06:38:51;;;;;;;15.70;4.20;;;;;;;11.21;100.00;102465.31;5092619;28;20054;-68
2023/10/04 06:41:17;;;;;;;11.65;2.33;;;;;;;11.36;100.00;102463.41;5092119;28;20464;-70
2023/10/04 06:43:43;;;;;;;15.43;4.75;;;;;;;11.28;100.00;102466.25;5092527;28;20032;-68
2023/10/04 06:46:08;;;;;;;8.32;2.38;;;;;;;11.37;100.00;102462.38;5091414;28;20028;-71
2023/10/04 06:48:33;;;;;;;14.10;4.22;;;;;;;11.30;100.00;102464.16;5091213;28;20119;-68
2023/10/04 06:50:59;;;;;;;11.70;4.05;;;;;;;11.28;100.00;102477.09;5092378;28;20093;-71
2023/10/04 06:53:25;;;;;;;8.00;2.80;;;;;;;11.42;100.00;102473.47;5093977;28;20085;-70
2023/10/04 06:55:50;;;;;;;16.05;4.82;;;;;;;11.35;100.00;102476.13;5096921;28;20085;-68
2023/10/04 06:58:15;;;;;;;13.63;4.47;;;;;;;11.38;100.00;102479.47;5095953;28;20036;-71
2023/10/04 07:00:41;;;;;;;7.97;2.20;;;;;;;11.54;100.00;102473.84;5081194;28;20120;-71
2023/10/04 07:03:07;;;;;;;11.15;3.15;;;;;;;11.60;100.00;102472.22;5074380;28;20507;-72
2023/10/04 07:05:39;;;;;;;13.98;4.57;;;;;;;11.51;100.00;102474.22;5076279;28;20030;-71
2023/10/04 07:08:06;;;;;;;4.32;1.98;;;;;;;11.71;100.00;102477.13;5075892;28;20036;-71
2023/10/04 07:10:32;;;;;;;8.50;2.25;;;;;;;11.65;100.00;102476.03;5076252;28;20098;-70
2023/10/04 07:12:59;;;;;;;13.25;4.55;;;;;;;11.57;100.00;102475.31;5076191;28;20468;-70
2023/10/04 07:15:28;;;;;;;13.45;4.53;;;;;;;11.59;100.00;102467.84;5075267;28;20032;-69
2023/10/04 07:17:54;;;;;;;13.77;4.03;;;;;;;11.62;100.00;102467.44;5079292;28;20024;-71
2023/10/04 07:20:19;;;;;;;15.68;4.90;;;;;;;11.71;100.00;102477.13;5094947;28;20031;-68
2023/10/04 07:22:51;;;;;;;10.07;2.75;;;;;;;11.82;100.00;102478.50;5090368;28;20468;-68
2023/10/04 07:25:17;;;;;;;12.65;4.55;;;;;;;11.82;100.00;102478.50;5078481;28;20024;-69
2023/10/04 07:27:44;;;;;;;14.25;4.80;;;;;;;11.85;100.00;102473.53;5095781;28;20110;-69
2023/10/04 07:30:14;;;;;;;13.75;4.80;;;;;;;11.88;100.00;102465.00;5094065;28;20538;-71
2023/10/04 07:32:43;;;;;;;15.30;4.75;;;;;;;11.95;100.00;102470.50;5095495;28;20024;-71
2023/10/04 07:35:15;;;;;;;15.52;4.50;;;;;;;11.97;100.00;102473.91;5095297;28;20031;-69
2023/10/04 07:37:41;;;;;;;15.15;4.70;;;;;;;12.08;100.00;102486.09;5095394;28;20028;-69
2023/10/04 07:40:13;;;;;;;15.32;4.72;;;;;;;12.12;100.00;102479.22;5095002;28;20032;-70
2023/10/04 07:42:39;;;;;;;18.33;4.80;;;;;;;12.18;100.00;102485.75;5090914;28;20395;-71
2023/10/04 07:45:09;;;;;;;18.48;4.72;;;;;;;12.19;100.00;102493.69;5086680;28;20029;-69
2023/10/04 07:47:38;;;;;;;20.08;4.97;;;;;;;12.27;100.00;102492.72;5093534;28;20039;-71
2023/10/04 07:50:05;;;;;;;17.80;4.80;;;;;;;12.28;100.00;102491.69;5094846;28;20040;-69
2023/10/04 07:52:31;;;;;;;5.93;2.35;;;;;;;12.41;100.00;102501.81;5094939;28;20391;-68
2023/10/04 07:54:59;;;;;;;13.68;2.78;;;;;;;12.43;100.00;102507.88;5095206;28;20107;-70
2023/10/04 07:57:25;;;;;;;14.48;4.50;;;;;;;12.45;100.00;102503.09;5094833;28;20471;-70
2023/10/04 07:59:51;;;;;;;16.40;4.82;;;;;;;12.48;100.00;102504.59;5095046;28;20024;-68
2023/10/04 08:02:17;;;;;;;6.88;2.30;;;;;;;12.59;100.00;102518.47;5092541;28;20024;-71
2023/10/04 08:04:45;;;;;;;14.85;4.50;;;;;;;12.56;100.00;102508.00;5107828;28;20039;-70
2023/10/04 08:07:12;;;;;;;19.35;5.00;;;;;;;12.61;100.00;102512.81;5094692;28;20085;-71
2023/10/04 08:09:38;;;;;;;16.73;4.88;;;;;;;12.65;100.00;102514.13;5094517;28;20167;-69
2023/10/04 08:12:07;;;;;;;16.70;5.03;;;;;;;12.67;100.00;102513.91;5094329;28;20087;-69
2023/10/04 08:14:32;;;;;;;14.20;4.80;;;;;;;12.74;100.00;102515.66;5094757;28;20034;-67
2023/10/04 08:16:58;;;;;;;17.48;3.22;;;;;;;12.80;100.00;102511.28;5094764;28;20028;-68
2023/10/04 08:19:24;;;;;;;18.98;5.15;;;;;;;12.81;100.00;102529.25;5095642;28;20458;-69
2023/10/04 08:21:49;;;;;;;13.02;4.97;;;;;;;12.83;100.00;102529.06;5112603;28;20034;-68
2023/10/04 08:24:15;;;;;;;17.88;4.90;;;;;;;12.84;100.00;102530.75;5106765;28;20036;-70
2023/10/04 08:26:40;;;;;;;13.88;4.57;;;;;;;12.87;100.00;102531.19;5095006;28;20590;-68
2023/10/04 08:29:06;;;;;;;15.32;4.90;;;;;;;12.91;100.00;102531.63;5092124;28;20043;-68
2023/10/04 08:31:32;;;;;;;13.38;4.38;;;;;;;12.92;100.00;102527.84;5094602;28;20032;-69
2023/10/04 08:33:58;;;;;;;10.40;2.95;;;;;;;13.00;100.00;102529.56;5094785;28;20032;-70
2023/10/04 08:36:23;;;;;;;13.73;4.75;;;;;;;12.93;100.00;102530.38;5094535;28;20032;-70
2023/10/04 08:38:48;;;;;;;10.50;2.72;;;;;;;13.02;100.00;102530.22;5094625;28;20085;-70
2023/10/04 08:41:16;;;;;;;14.38;4.80;;;;;;;12.97;100.00;102535.41;5094695;28;20031;-70
2023/10/04 08:43:43;;;;;;;12.60;3.50;;;;;;;13.07;100.00;102533.19;5094477;28;20028;-70
2023/10/04 08:46:08;;;;;;;17.17;4.90;;;;;;;13.05;100.00;102532.56;5094359;28;20020;-70
2023/10/04 08:48:34;;;;;;;14.15;4.70;;;;;;;13.09;100.00;102536.56;5094740;28;20035;-70
2023/10/04 08:51:28;;;;;;;15.07;5.25;;;;;;;13.19;100.00;102538.88;5093308;28;20455;-70
2023/10/04 08:54:08;;;;;;;14.52;4.40;;;;;;;13.24;100.00;102537.25;5094185;28;20035;-71
2023/10/04 08:56:58;;;;;;;8.88;3.10;;;;;;;13.34;100.00;102536.06;5094360;28;20028;-68
2023/10/04 08:59:28;;;;;;;17.38;5.00;;;;;;;13.36;100.00;102539.41;5072847;28;20036;-69
2023/10/04 09:01:54;;;;;;;13.57;4.75;;;;;;;13.40;100.00;102538.81;5078870;28;20501;-70
2023/10/04 09:04:24;;;;;;;6.65;2.35;;;;;;;13.49;100.00;102539.47;5093600;28;20123;-71
2023/10/04 09:06:49;;;;;;;16.60;5.13;;;;;;;13.48;100.00;102535.06;5087706;28;20043;-72
2023/10/04 09:09:15;;;;;;;16.67;5.60;;;;;;;13.57;100.00;102542.03;5084940;28;20040;-72
2023/10/04 09:11:41;;;;;;;15.73;4.80;;;;;;;13.62;100.00;102550.41;5089035;28;20055;-71
2023/10/04 09:14:08;;;;;;;14.30;4.80;;;;;;;13.64;100.00;102545.59;5092394;28;20071;-70
2023/10/04 09:16:33;;;;;;;14.80;4.95;;;;;;;13.72;100.00;102546.47;5077544;28;20047;-70
2023/10/04 09:19:12;;;;;;;14.95;4.68;;;;;;;13.80;100.00;102540.84;5073948;28;20029;-70
2023/10/04 09:21:38;;;;;;;16.65;5.13;;;;;;;13.92;100.00;102538.34;5093927;28;20486;-70
2023/10/04 09:24:10;;;;;;;13.43;4.40;;;;;;;13.96;100.00;102537.72;5084350;28;20449;-70
2023/10/04 09:26:41;;;;;;;16.50;5.00;;;;;;;14.02;100.00;102533.34;5093074;28;20032;-73
2023/10/04 09:29:07;;;;;;;6.13;1.87;;;;;;;14.12;100.00;102524.78;5091284;28;20398;-70
2023/10/04 09:31:53;;;;;;;14.43;4.55;;;;;;;14.14;100.00;102522.69;5092865;28;20031;-71
2023/10/04 09:34:19;;;;;;;16.73;4.97;;;;;;;14.18;100.00;102526.69;5076823;28;20055;-73
2023/10/04 09:36:45;;;;;;;14.77;4.57;;;;;;;14.17;100.00;102530.44;5093103;28;20479;-71
2023/10/04 09:39:16;;;;;;;17.10;5.22;;;;;;;14.16;100.00;102545.09;5091296;28;20020;-71
2023/10/04 09:41:43;;;;;;;15.80;4.57;;;;;;;14.17;100.00;102546.78;5091308;28;20061;-71
2023/10/04 09:44:25;;;;;;;15.10;4.90;;;;;;;14.20;100.00;102540.91;5078358;28;20111;-72
2023/10/04 09:46:56;;;;;;;13.70;4.63;;;;;;;14.20;100.00;102545.53;5072667;28;20033;-72
2023/10/04 09:49:23;;;;;;;10.10;2.97;;;;;;;14.27;100.00;102539.03;5072383;28;20258;-72
2023/10/04 09:51:49;;;;;;;14.50;4.63;;;;;;;14.28;100.00;102538.00;5072664;28;20290;-72
2023/10/04 09:54:16;;;;;;;13.98;4.53;;;;;;;14.32;100.00;102541.13;5072401;28;20028;-72
2023/10/04 09:56:43;;;;;;;6.45;2.22;;;;;;;14.40;100.00;102537.34;5071476;28;20055;-72
2023/10/04 09:59:11;;;;;;;11.88;4.38;;;;;;;14.40;100.00;102527.28;5072863;28;20034;-71
2023/10/04 10:01:38;;;;;;;15.43;5.10;;;;;;;14.45;100.00;102532.16;5078338;28;20463;-72
2023/10/04 10:04:10;;;;;;;16.75;5.60;;;;;;;14.50;100.00;102535.88;5089962;28;21685;-72
2023/10/04 10:06:51;;;;;;;12.52;4.22;;;;;;;14.52;100.00;102543.84;5079511;28;20094;-71
2023/10/04 10:09:20;;;;;;;14.55;4.35;;;;;;;14.54;100.00;102552.66;5072674;28;20032;-71
2023/10/04 10:11:46;;;;;;;14.45;5.15;;;;;;;14.59;100.00;102550.16;5081262;28;20039;-71
2023/10/04 10:14:14;;;;;;;15.15;4.80;;;;;;;14.58;100.00;102553.91;5092512;28;20031;-72
2023/10/04 10:16:41;;;;;;;12.93;4.80;;;;;;;14.63;100.00;102554.16;5092568;28;20428;-71
2023/10/04 10:19:08;;;;;;;13.25;4.35;;;;;;;14.62;100.00;102549.75;5092629;28;20031;-71
2023/10/04 10:22:02;;;;;;;14.55;5.28;;;;;;;14.66;100.00;102556.47;5091288;28;20031;-71
2023/10/04 10:24:27;;;;;;;14.60;4.82;;;;;;;14.63;100.00;102547.84;5092541;28;20072;-71
2023/10/04 10:27:03;;;;;;;12.60;4.55;;;;;;;14.67;100.00;102549.97;5092496;28;20440;-71
2023/10/04 10:29:31;;;;;;;17.30;5.53;;;;;;;14.73;100.00;102539.28;5091261;28;20036;-71
2023/10/04 10:31:56;;;;;;;12.32;4.30;;;;;;;14.78;100.00;102544.91;5092915;28;20028;-71
2023/10/04 10:34:22;;;;;;;13.30;4.63;;;;;;;14.83;100.00;102536.94;5092536;28;20039;-73
2023/10/04 10:37:07;;;;;;;11.93;4.43;;;;;;;14.91;100.00;102535.88;5091352;28;20123;-72
2023/10/04 10:39:42;;;;;;;15.07;4.90;;;;;;;14.97;100.00;102535.84;5092261;28;20039;-72
2023/10/04 10:42:11;;;;;;;11.98;4.60;;;;;;;15.06;100.00;102539.19;5092702;28;20055;-71
2023/10/04 10:44:39;;;;;;;13.77;4.65;;;;;;;15.14;100.00;102535.41;5092667;28;20024;-76
2023/10/04 10:47:23;;;;;;;15.10;4.90;;;;;;;15.15;100.00;102539.81;5090750;28;20193;-77
2023/10/04 10:50:12;;;;;;;13.90;4.75;;;;;;;15.21;100.00;102531.59;5091808;28;20059;-73
2023/10/04 10:52:39;;;;;;;13.45;4.50;;;;;;;15.26;100.00;102539.13;5088385;28;20025;-73
2023/10/04 10:55:15;;;;;;;14.13;4.50;;;;;;;15.36;100.00;102544.16;5071134;28;20178;-74
2023/10/04 10:57:44;;;;;;;13.18;4.20;;;;;;;15.32;100.00;102532.00;5084496;28;20028;-73
2023/10/04 11:02:42;;;;;;;15.27;5.10;;;;;;;15.39;100.00;102527.34;5090838;28;20038;-76
2023/10/04 11:05:09;;;;;;;11.60;4.97;;;;;;;15.42;100.00;102519.56;5089661;28;20140;-73
2023/10/04 11:07:36;;;;;;;12.38;5.03;;;;;;;15.46;100.00;102516.41;5085440;28;20032;-74
2023/10/04 11:10:03;;;;;;;12.68;4.85;;;;;;;15.50;100.00;102514.91;5092663;28;20028;-72
2023/10/04 11:12:33;;;;;;;12.18;5.22;;;;;;;15.49;100.00;102505.03;5087822;28;20053;-75
2023/10/04 11:14:59;;;;;;;14.77;4.95;;;;;;;15.57;100.00;102507.53;5091358;28;20024;-73
2023/10/04 11:17:24;;;;;;;11.95;5.38;;;;;;;15.62;100.00;102507.72;5078116;28;20605;-72
2023/10/04 11:19:52;;;;;;;13.60;5.20;;;;;;;15.66;100.00;102505.41;5074989;28;20113;-72